sensor_id;sensor_type;location;lat;lon;timestamp;pressure;altitude;pressure_sealevel;temperature;humidity
63281;BME280;49406;51.044;3.766;2023-07-13T00:02:32;101552.90;;;15.92;100.00
63281;BME280;49406;51.044;3.766;2023-07-13T00:05:08;101555.05;;;15.85;100.00
63281;BME280;49406;51.044;3.766;2023-07-13T00:07:43;101548.36;;;15.80;100.00
63281;BME280;49406;51.044;3.766;2023-07-13T00:10:19;101547.64;;;15.83;100.00
63281;BME280;49406;51.044;3.766;2023-07-13T00:12:54;101552.39;;;15.87;100.00
63281;BME280;49406;51.044;3.766;2023-07-13T00:15:29;101549.95;;;15.77;100.00
63281;BME280;49406;51.044;3.766;2023-07-13T00:18:05;101551.35;;;15.76;100.00
63281;BME280;49406;51.044;3.766;2023-07-13T00:20:39;101554.73;;;15.69;100.00
63281;BME280;49406;51.044;3.766;2023-07-13T00:23:15;101556.30;;;15.61;100.00
63281;BME280;49406;51.044;3.766;2023-07-13T00:25:50;101552.59;;;15.59;100.00
63281;BME280;49406;51.044;3.766;2023-07-13T00:28:23;101549.97;;;15.60;100.00
63281;BME280;49406;51.044;3.766;2023-07-13T00:30:57;101547.48;;;15.58;100.00
63281;BME280;49406;51.044;3.766;2023-07-13T00:33:33;101548.18;;;15.53;100.00
63281;BME280;49406;51.044;3.766;2023-07-13T00:36:07;101551.02;;;15.46;100.00
63281;BME280;49406;51.044;3.766;2023-07-13T00:38:42;101554.52;;;15.41;100.00
63281;BME280;49406;51.044;3.766;2023-07-13T00:41:17;101559.82;;;15.40;100.00
63281;BME280;49406;51.044;3.766;2023-07-13T00:43:50;101555.06;;;15.44;100.00
63281;BME280;49406;51.044;3.766;2023-07-13T00:46:27;101552.95;;;15.40;100.00
63281;BME280;49406;51.044;3.766;2023-07-13T00:49:04;101554.54;;;15.39;100.00
63281;BME280;49406;51.044;3.766;2023-07-13T00:51:39;101560.36;;;15.35;100.00
63281;BME280;49406;51.044;3.766;2023-07-13T00:54:17;101561.23;;;15.28;100.00
63281;BME280;49406;51.044;3.766;2023-07-13T00:56:55;101555.60;;;15.21;100.00
63281;BME280;49406;51.044;3.766;2023-07-13T00:59:31;101553.30;;;15.18;100.00
63281;BME280;49406;51.044;3.766;2023-07-13T01:02:08;101552.77;;;15.17;100.00
63281;BME280;49406;51.044;3.766;2023-07-13T01:04:43;101558.05;;;15.26;100.00
63281;BME280;49406;51.044;3.766;2023-07-13T01:07:19;101561.58;;;15.24;100.00
63281;BME280;49406;51.044;3.766;2023-07-13T01:09:54;101563.70;;;15.18;100.00
63281;BME280;49406;51.044;3.766;2023-07-13T01:12:28;101558.22;;;15.09;100.00
63281;BME280;49406;51.044;3.766;2023-07-13T01:15:06;101561.04;;;15.09;100.00
63281;BME280;49406;51.044;3.766;2023-07-13T01:18:00;101558.59;;;15.10;100.00
63281;BME280;49406;51.044;3.766;2023-07-13T01:20:35;101564.22;;;15.21;100.00
63281;BME280;49406;51.044;3.766;2023-07-13T01:23:11;101568.45;;;15.26;100.00
63281;BME280;49406;51.044;3.766;2023-07-13T01:25:47;101568.80;;;15.23;100.00
63281;BME280;49406;51.044;3.766;2023-07-13T01:28:22;101570.05;;;15.16;100.00
63281;BME280;49406;51.044;3.766;2023-07-13T01:31:00;101573.73;;;15.12;100.00
63281;BME280;49406;51.044;3.766;2023-07-13T01:33:36;101574.45;;;15.15;100.00
63281;BME280;49406;51.044;3.766;2023-07-13T01:36:11;101574.98;;;15.15;100.00
63281;BME280;49406;51.044;3.766;2023-07-13T01:38:47;101579.73;;;15.13;100.00
63281;BME280;49406;51.044;3.766;2023-07-13T01:41:21;101579.01;;;15.06;100.00
63281;BME280;49406;51.044;3.766;2023-07-13T01:43:56;101581.99;;;15.01;100.00
63281;BME280;49406;51.044;3.766;2023-07-13T01:46:31;101570.36;;;14.92;100.00
63281;BME280;49406;51.044;3.766;2023-07-13T01:49:05;101580.41;;;14.99;100.00
63281;BME280;49406;51.044;3.766;2023-07-13T01:51:40;101583.58;;;15.04;100.00
63281;BME280;49406;51.044;3.766;2023-07-13T01:54:14;101583.58;;;15.04;100.00
63281;BME280;49406;51.044;3.766;2023-07-13T01:56:49;101586.57;;;15.02;100.00
63281;BME280;49406;51.044;3.766;2023-07-13T01:59:23;101583.40;;;14.97;100.00
63281;BME280;49406;51.044;3.766;2023-07-13T02:01:58;101582.33;;;14.95;100.00
63281;BME280;49406;51.044;3.766;2023-07-13T02:04:33;101583.22;;;14.97;100.00
63281;BME280;49406;51.044;3.766;2023-07-13T02:07:09;101573.89;;;15.02;100.00
63281;BME280;49406;51.044;3.766;2023-07-13T02:09:42;101575.83;;;15.04;100.00
63281;BME280;49406;51.044;3.766;2023-07-13T02:12:16;101577.05;;;15.05;100.00
63281;BME280;49406;51.044;3.766;2023-07-13T02:14:51;101581.29;;;15.05;100.00
63281;BME280;49406;51.044;3.766;2023-07-13T02:17:26;101581.83;;;15.03;100.00
63281;BME280;49406;51.044;3.766;2023-07-13T02:20:01;101580.77;;;15.00;100.00
63281;BME280;49406;51.044;3.766;2023-07-13T02:22:36;101581.29;;;15.04;100.00
63281;BME280;49406;51.044;3.766;2023-07-13T02:25:11;101580.94;;;15.10;100.00
63281;BME280;49406;51.044;3.766;2023-07-13T02:27:46;101577.08;;;15.11;100.00
63281;BME280;49406;51.044;3.766;2023-07-13T02:30:20;101574.80;;;15.14;100.00
63281;BME280;49406;51.044;3.766;2023-07-13T02:32:57;101577.61;;;15.14;100.00
63281;BME280;49406;51.044;3.766;2023-07-13T02:35:32;101576.53;;;15.09;100.00
63281;BME280;49406;51.044;3.766;2023-07-13T02:38:07;101579.00;;;15.05;100.00
63281;BME280;49406;51.044;3.766;2023-07-13T02:40:41;101576.53;;;15.08;100.00
63281;BME280;49406;51.044;3.766;2023-07-13T02:43:16;101575.30;;;15.08;100.00
63281;BME280;49406;51.044;3.766;2023-07-13T02:45:51;101578.11;;;15.04;100.00
63281;BME280;49406;51.044;3.766;2023-07-13T02:48:25;101584.29;;;15.02;100.00
63281;BME280;49406;51.044;3.766;2023-07-13T02:51:00;101579.53;;;14.99;100.00
63281;BME280;49406;51.044;3.766;2023-07-13T02:53:35;101580.59;;;14.97;100.00
63281;BME280;49406;51.044;3.766;2023-07-13T02:56:10;101577.02;;;14.91;100.00
63281;BME280;49406;51.044;3.766;2023-07-13T02:58:44;101572.98;;;14.84;100.00
63281;BME280;49406;51.044;3.766;2023-07-13T03:01:19;101574.58;;;14.92;100.00
63281;BME280;49406;51.044;3.766;2023-07-13T03:03:54;101576.70;;;14.95;100.00
63281;BME280;49406;51.044;3.766;2023-07-13T03:06:29;101579.14;;;14.92;100.00
63281;BME280;49406;51.044;3.766;2023-07-13T03:09:04;101578.61;;;14.90;100.00
63281;BME280;49406;51.044;3.766;2023-07-13T03:11:39;101576.67;;;14.88;100.00
63281;BME280;49406;51.044;3.766;2023-07-13T03:14:14;101583.01;;;14.82;100.00
63281;BME280;49406;51.044;3.766;2023-07-13T03:16:49;101582.98;;;14.77;100.00
63281;BME280;49406;51.044;3.766;2023-07-13T03:19:23;101585.65;;;14.81;100.00
63281;BME280;49406;51.044;3.766;2023-07-13T03:21:58;101585.48;;;14.85;100.00
63281;BME280;49406;51.044;3.766;2023-07-13T03:24:33;101583.55;;;14.88;100.00
63281;BME280;49406;51.044;3.766;2023-07-13T03:27:08;101584.60;;;14.89;100.00
63281;BME280;49406;51.044;3.766;2023-07-13T03:29:43;101587.06;;;14.92;100.00
63281;BME280;49406;51.044;3.766;2023-07-13T03:32:18;101589.55;;;14.94;100.00
63281;BME280;49406;51.044;3.766;2023-07-13T03:34:52;101591.33;;;14.95;100.00
63281;BME280;49406;51.044;3.766;2023-07-13T03:37:27;101591.67;;;14.95;100.00
63281;BME280;49406;51.044;3.766;2023-07-13T03:40:01;101601.36;;;15.08;100.00
63281;BME280;49406;51.044;3.766;2023-07-13T03:42:36;101599.11;;;15.12;100.00
63281;BME280;49406;51.044;3.766;2023-07-13T03:45:11;101604.22;;;15.15;100.00
63281;BME280;49406;51.044;3.766;2023-07-13T03:47:46;101599.80;;;15.20;100.00
63281;BME280;49406;51.044;3.766;2023-07-13T03:50:18;101608.44;;;15.22;100.00
63281;BME280;49406;51.044;3.766;2023-07-13T03:52:53;101604.73;;;15.23;100.00
63281;BME280;49406;51.044;3.766;2023-07-13T03:55:29;101609.14;;;15.20;100.00
63281;BME280;49406;51.044;3.766;2023-07-13T03:58:24;101613.02;;;15.17;100.00
63281;BME280;49406;51.044;3.766;2023-07-13T04:01:00;101618.48;;;15.21;100.00
63281;BME280;49406;51.044;3.766;2023-07-13T04:03:36;101618.83;;;15.20;100.00
63281;BME280;49406;51.044;3.766;2023-07-13T04:06:16;101623.05;;;15.23;100.00
63281;BME280;49406;51.044;3.766;2023-07-13T04:08:56;101619.37;;;15.27;100.00
63281;BME280;49406;51.044;3.766;2023-07-13T04:11:32;101622.91;;;15.34;100.00
63281;BME280;49406;51.044;3.766;2023-07-13T04:14:07;101623.60;;;15.38;100.00
63281;BME280;49406;51.044;3.766;2023-07-13T04:16:41;101626.42;;;15.42;100.00
63281;BME280;49406;51.044;3.766;2023-07-13T04:19:16;101627.85;;;15.54;100.00
63281;BME280;49406;51.044;3.766;2023-07-13T04:21:51;101626.46;;;15.61;100.00
63281;BME280;49406;51.044;3.766;2023-07-13T04:24:26;101628.59;;;15.67;100.00
63281;BME280;49406;51.044;3.766;2023-07-13T04:27:00;101630.88;;;15.71;100.00
63281;BME280;49406;51.044;3.766;2023-07-13T04:29:36;101628.41;;;15.69;100.00
63281;BME280;49406;51.044;3.766;2023-07-13T04:32:11;101632.80;;;15.73;100.00
63281;BME280;49406;51.044;3.766;2023-07-13T04:34:45;101638.98;;;15.81;100.00
63281;BME280;49406;51.044;3.766;2023-07-13T04:37:21;101633.70;;;15.84;100.00
63281;BME280;49406;51.044;3.766;2023-07-13T04:39:56;101635.27;;;15.90;100.00
63281;BME280;49406;51.044;3.766;2023-07-13T04:42:30;101640.38;;;15.98;100.00
63281;BME280;49406;51.044;3.766;2023-07-13T04:45:09;101641.79;;;16.01;100.00
63281;BME280;49406;51.044;3.766;2023-07-13T04:47:44;101643.02;;;16.01;100.00
63281;BME280;49406;51.044;3.766;2023-07-13T04:50:18;101640.90;;;16.04;100.00
63281;BME280;49406;51.044;3.766;2023-07-13T04:52:56;101640.69;;;16.12;100.00
63281;BME280;49406;51.044;3.766;2023-07-13T04:55:31;101640.86;;;16.16;100.00
63281;BME280;49406;51.044;3.766;2023-07-13T04:58:06;101647.39;;;16.20;100.00
63281;BME280;49406;51.044;3.766;2023-07-13T05:00:41;101648.61;;;16.23;100.00
63281;BME280;49406;51.044;3.766;2023-07-13T05:03:16;101654.61;;;16.23;100.00
63281;BME280;49406;51.044;3.766;2023-07-13T05:05:58;101654.95;;;16.29;100.00
63281;BME280;49406;51.044;3.766;2023-07-13T05:08:34;101652.11;;;16.38;100.00
63281;BME280;49406;51.044;3.766;2023-07-13T05:11:08;101657.73;;;16.41;100.00
63281;BME280;49406;51.044;3.766;2023-07-13T05:13:43;101660.38;;;16.45;100.00
63281;BME280;49406;51.044;3.766;2023-07-13T05:16:18;101662.68;;;16.48;100.00
63281;BME280;49406;51.044;3.766;2023-07-13T05:18:53;101662.14;;;16.49;100.00
63281;BME280;49406;51.044;3.766;2023-07-13T05:21:28;101658.21;;;16.57;100.00
63281;BME280;49406;51.044;3.766;2023-07-13T05:24:03;101665.08;;;16.62;100.00
63281;BME280;49406;51.044;3.766;2023-07-13T05:26:37;101669.50;;;16.71;100.00
63281;BME280;49406;51.044;3.766;2023-07-13T05:29:12;101673.35;;;16.77;100.00
63281;BME280;49406;51.044;3.766;2023-07-13T05:31:46;101676.52;;;16.79;100.00
63281;BME280;49406;51.044;3.766;2023-07-13T05:34:21;101680.92;;;16.86;100.00
63281;BME280;49406;51.044;3.766;2023-07-13T05:36:56;101683.48;;;17.03;100.00
63281;BME280;49406;51.044;3.766;2023-07-13T05:39:30;101684.30;;;17.16;100.00
63281;BME280;49406;51.044;3.766;2023-07-13T05:42:06;101685.30;;;17.24;100.00
63281;BME280;49406;51.044;3.766;2023-07-13T05:44:41;101684.74;;;17.30;100.00
63281;BME280;49406;51.044;3.766;2023-07-13T05:47:15;101692.33;;;17.34;100.00
63281;BME280;49406;51.044;3.766;2023-07-13T05:49:50;101694.38;;;17.43;100.00
63281;BME280;49406;51.044;3.766;2023-07-13T05:52:25;101696.81;;;17.51;100.00
63281;BME280;49406;51.044;3.766;2023-07-13T05:54:59;101699.27;;;17.53;100.00
63281;BME280;49406;51.044;3.766;2023-07-13T05:57:34;101698.54;;;17.57;100.00
63281;BME280;49406;51.044;3.766;2023-07-13T06:00:10;101704.85;;;17.64;100.00
63281;BME280;49406;51.044;3.766;2023-07-13T06:02:45;101706.59;;;17.72;100.00
63281;BME280;49406;51.044;3.766;2023-07-13T06:05:20;101703.98;;;17.89;100.00
63281;BME280;49406;51.044;3.766;2023-07-13T06:07:55;101698.41;;;17.98;100.00
63281;BME280;49406;51.044;3.766;2023-07-13T06:10:29;101703.46;;;18.07;100.00
63281;BME280;49406;51.044;3.766;2023-07-13T06:13:06;101706.61;;;18.11;100.00
63281;BME280;49406;51.044;3.766;2023-07-13T06:15:41;101711.02;;;18.11;100.00
63281;BME280;49406;51.044;3.766;2023-07-13T06:18:15;101719.48;;;18.18;100.00
63281;BME280;49406;51.044;3.766;2023-07-13T06:20:50;101727.56;;;18.22;100.00
63281;BME280;49406;51.044;3.766;2023-07-13T06:23:25;101731.77;;;18.27;100.00
63281;BME280;49406;51.044;3.766;2023-07-13T06:25:59;101730.45;;;18.35;100.00
63281;BME280;49406;51.044;3.766;2023-07-13T06:28:35;101734.59;;;18.48;100.00
63281;BME280;49406;51.044;3.766;2023-07-13T06:31:11;101738.06;;;18.53;100.00
63281;BME280;49406;51.044;3.766;2023-07-13T06:33:46;101735.58;;;18.54;100.00
63281;BME280;49406;51.044;3.766;2023-07-13T06:36:21;101733.44;;;18.55;100.00
63281;BME280;49406;51.044;3.766;2023-07-13T06:38:55;101731.77;;;18.62;100.00
63281;BME280;49406;51.044;3.766;2023-07-13T06:41:30;101728.86;;;18.71;100.00
63281;BME280;49406;51.044;3.766;2023-07-13T06:44:06;101728.42;;;19.08;100.00
63281;BME280;49406;51.044;3.766;2023-07-13T06:46:41;101733.28;;;19.55;100.00
63281;BME280;49406;51.044;3.766;2023-07-13T06:49:15;101736.05;;;19.94;99.95
63281;BME280;49406;51.044;3.766;2023-07-13T06:51:50;101733.19;;;20.18;98.01
63281;BME280;49406;51.044;3.766;2023-07-13T06:54:25;101735.28;;;20.29;98.48
63281;BME280;49406;51.044;3.766;2023-07-13T06:56:59;101741.73;;;20.66;97.12
63281;BME280;49406;51.044;3.766;2023-07-13T06:59:34;101743.81;;;21.03;94.07
63281;BME280;49406;51.044;3.766;2023-07-13T07:02:10;101745.45;;;21.19;93.03
63281;BME280;49406;51.044;3.766;2023-07-13T07:04:44;101745.03;;;21.39;92.64
63281;BME280;49406;51.044;3.766;2023-07-13T07:07:19;101743.20;;;21.49;90.86
63281;BME280;49406;51.044;3.766;2023-07-13T07:09:54;101746.82;;;21.54;88.99
63281;BME280;49406;51.044;3.766;2023-07-13T07:12:29;101746.95;;;21.33;88.28
63281;BME280;49406;51.044;3.766;2023-07-13T07:15:04;101747.89;;;21.39;88.36
63281;BME280;49406;51.044;3.766;2023-07-13T07:17:39;101748.69;;;21.35;88.11
63281;BME280;49406;51.044;3.766;2023-07-13T07:20:14;101749.27;;;21.41;87.98
63281;BME280;49406;51.044;3.766;2023-07-13T07:22:49;101751.69;;;21.60;87.58
63281;BME280;49406;51.044;3.766;2023-07-13T07:25:23;101748.30;;;22.04;86.14
63281;BME280;49406;51.044;3.766;2023-07-13T07:27:58;101741.48;;;22.41;83.68
63281;BME280;49406;51.044;3.766;2023-07-13T07:30:33;101743.59;;;22.62;83.15
63281;BME280;49406;51.044;3.766;2023-07-13T07:33:08;101748.16;;;23.03;80.62
63281;BME280;49406;51.044;3.766;2023-07-13T07:35:43;101754.73;;;23.40;77.61
63281;BME280;49406;51.044;3.766;2023-07-13T07:38:18;101753.90;;;23.55;75.12
63281;BME280;49406;51.044;3.766;2023-07-13T07:40:53;101759.83;;;23.54;74.84
63281;BME280;49406;51.044;3.766;2023-07-13T07:43:28;101754.83;;;23.54;72.65
63281;BME280;49406;51.044;3.766;2023-07-13T07:46:03;101759.23;;;23.84;73.13
63281;BME280;49406;51.044;3.766;2023-07-13T07:48:37;101757.98;;;24.33;72.54
63281;BME280;49406;51.044;3.766;2023-07-13T07:51:10;101755.48;;;24.58;69.86
63281;BME280;49406;51.044;3.766;2023-07-13T07:53:45;101761.89;;;24.49;69.60
63281;BME280;49406;51.044;3.766;2023-07-13T07:56:20;101763.23;;;24.09;68.87
63281;BME280;49406;51.044;3.766;2023-07-13T07:58:54;101768.87;;;23.79;67.56
63281;BME280;49406;51.044;3.766;2023-07-13T08:01:29;101770.30;;;23.79;68.28
63281;BME280;49406;51.044;3.766;2023-07-13T08:04:04;101768.70;;;23.90;68.01
63281;BME280;49406;51.044;3.766;2023-07-13T08:06:38;101764.19;;;24.08;67.93
63281;BME280;49406;51.044;3.766;2023-07-13T08:09:13;101764.70;;;23.97;68.97
63281;BME280;49406;51.044;3.766;2023-07-13T08:11:47;101760.20;;;24.14;67.62
63281;BME280;49406;51.044;3.766;2023-07-13T08:14:22;101764.70;;;24.30;67.98
63281;BME280;49406;51.044;3.766;2023-07-13T08:16:57;101765.16;;;24.48;67.57
63281;BME280;49406;51.044;3.766;2023-07-13T08:19:31;101755.69;;;24.77;66.73
63281;BME280;49406;51.044;3.766;2023-07-13T08:22:06;101763.48;;;24.84;65.22
63281;BME280;49406;51.044;3.766;2023-07-13T08:24:41;101758.67;;;24.83;64.58
63281;BME280;49406;51.044;3.766;2023-07-13T08:27:16;101759.33;;;25.15;64.26
63281;BME280;49406;51.044;3.766;2023-07-13T08:29:53;101763.88;;;25.36;63.11
63281;BME280;49406;51.044;3.766;2023-07-13T08:32:28;101760.08;;;25.23;63.31
63281;BME280;49406;51.044;3.766;2023-07-13T08:35:02;101762.43;;;25.45;62.46
63281;BME280;49406;51.044;3.766;2023-07-13T08:37:37;101764.08;;;25.63;61.33
63281;BME280;49406;51.044;3.766;2023-07-13T08:40:13;101764.69;;;25.57;61.19
63281;BME280;49406;51.044;3.766;2023-07-13T08:42:52;101759.16;;;25.19;62.60
63281;BME280;49406;51.044;3.766;2023-07-13T08:45:33;101763.89;;;25.08;63.22
63281;BME280;49406;51.044;3.766;2023-07-13T08:48:15;101761.31;;;24.80;62.90
63281;BME280;49406;51.044;3.766;2023-07-13T08:50:58;101765.27;;;24.07;64.88
63281;BME280;49406;51.044;3.766;2023-07-13T08:53:37;101767.05;;;23.63;66.67
63281;BME280;49406;51.044;3.766;2023-07-13T08:56:18;101763.11;;;23.46;67.01
63281;BME280;49406;51.044;3.766;2023-07-13T08:58:57;101764.69;;;23.29;65.31
63281;BME280;49406;51.044;3.766;2023-07-13T09:01:39;101770.45;;;23.62;65.55
63281;BME280;49406;51.044;3.766;2023-07-13T09:04:21;101771.83;;;24.14;61.96
63281;BME280;49406;51.044;3.766;2023-07-13T09:10:00;101765.63;;;24.99;60.40
63281;BME280;49406;51.044;3.766;2023-07-13T09:12:50;101768.73;;;25.31;57.67
63281;BME280;49406;51.044;3.766;2023-07-13T09:15:31;101771.96;;;25.49;56.32
63281;BME280;49406;51.044;3.766;2023-07-13T09:18:10;101768.38;;;25.72;55.69
63281;BME280;49406;51.044;3.766;2023-07-13T09:20:51;101768.71;;;25.68;54.22
63281;BME280;49406;51.044;3.766;2023-07-13T09:23:30;101769.61;;;25.40;54.06
63281;BME280;49406;51.044;3.766;2023-07-13T09:26:06;101774.14;;;25.62;54.59
63281;BME280;49406;51.044;3.766;2023-07-13T09:28:47;101777.14;;;25.99;54.80
63281;BME280;49406;51.044;3.766;2023-07-13T09:31:26;101778.44;;;26.37;52.98
63281;BME280;49406;51.044;3.766;2023-07-13T09:34:06;101771.11;;;26.45;52.14
63281;BME280;49406;51.044;3.766;2023-07-13T09:36:43;101775.79;;;26.56;52.60
63281;BME280;49406;51.044;3.766;2023-07-13T09:39:23;101771.89;;;26.84;52.73
63281;BME280;49406;51.044;3.766;2023-07-13T09:42:03;101769.98;;;26.90;52.17
63281;BME280;49406;51.044;3.766;2023-07-13T09:44:54;101761.90;;;26.58;51.21
63281;BME280;49406;51.044;3.766;2023-07-13T09:47:31;101774.52;;;26.27;52.15
63281;BME280;49406;51.044;3.766;2023-07-13T09:50:09;101776.94;;;26.42;52.38
63281;BME280;49406;51.044;3.766;2023-07-13T09:52:50;101769.58;;;26.46;51.13
63281;BME280;49406;51.044;3.766;2023-07-13T09:55:34;101768.10;;;26.14;52.49
63281;BME280;49406;51.044;3.766;2023-07-13T09:58:12;101769.16;;;26.10;53.23
63281;BME280;49406;51.044;3.766;2023-07-13T10:00:56;101771.48;;;26.22;53.18
63281;BME280;49406;51.044;3.766;2023-07-13T10:03:33;101771.34;;;26.63;53.18
63281;BME280;49406;51.044;3.766;2023-07-13T10:06:16;101769.33;;;26.77;51.38
63281;BME280;49406;51.044;3.766;2023-07-13T10:08:51;101773.95;;;26.86;50.10
63281;BME280;49406;51.044;3.766;2023-07-13T10:11:28;101774.27;;;26.75;50.22
63281;BME280;49406;51.044;3.766;2023-07-13T10:14:11;101778.62;;;27.02;50.14
63281;BME280;49406;51.044;3.766;2023-07-13T10:16:47;101773.71;;;27.26;49.35
63281;BME280;49406;51.044;3.766;2023-07-13T10:19:27;101778.70;;;27.35;49.55
63281;BME280;49406;51.044;3.766;2023-07-13T10:22:20;101780.14;;;27.19;48.27
63281;BME280;49406;51.044;3.766;2023-07-13T10:24:58;101787.02;;;27.14;47.86
63281;BME280;49406;51.044;3.766;2023-07-13T10:27:35;101786.09;;;27.15;47.67
63281;BME280;49406;51.044;3.766;2023-07-13T10:30:15;101788.63;;;27.37;47.00
63281;BME280;49406;51.044;3.766;2023-07-13T10:32:51;101786.03;;;27.39;46.36
63281;BME280;49406;51.044;3.766;2023-07-13T10:35:29;101786.18;;;26.93;47.25
63281;BME280;49406;51.044;3.766;2023-07-13T10:38:06;101787.36;;;26.79;48.52
63281;BME280;49406;51.044;3.766;2023-07-13T10:40:50;101782.50;;;26.66;48.61
63281;BME280;49406;51.044;3.766;2023-07-13T10:43:28;101790.58;;;26.42;48.02
63281;BME280;49406;51.044;3.766;2023-07-13T10:46:09;101802.01;;;26.08;49.52
63281;BME280;49406;51.044;3.766;2023-07-13T10:48:46;101811.02;;;25.85;49.11
63281;BME280;49406;51.044;3.766;2023-07-13T10:51:24;101820.63;;;25.41;49.49
63281;BME280;49406;51.044;3.766;2023-07-13T10:54:19;101850.92;;;24.90;53.14
63281;BME280;49406;51.044;3.766;2023-07-13T10:57:14;101855.85;;;23.96;60.13
63281;BME280;49406;51.044;3.766;2023-07-13T11:00:15;101868.17;;;22.82;74.46
63281;BME280;49406;51.044;3.766;2023-07-13T11:02:59;101880.58;;;20.89;90.99
63281;BME280;49406;51.044;3.766;2023-07-13T11:05:35;101884.06;;;19.20;100.00
63281;BME280;49406;51.044;3.766;2023-07-13T11:08:20;101879.30;;;18.41;100.00
63281;BME280;49406;51.044;3.766;2023-07-13T11:10:57;101890.82;;;18.15;100.00
63281;BME280;49406;51.044;3.766;2023-07-13T11:13:55;101891.44;;;18.00;100.00
63281;BME280;49406;51.044;3.766;2023-07-13T11:16:37;101893.26;;;17.91;100.00
63281;BME280;49406;51.044;3.766;2023-07-13T11:19:41;101892.42;;;17.82;100.00
63281;BME280;49406;51.044;3.766;2023-07-13T11:22:24;101886.73;;;17.86;100.00
63281;BME280;49406;51.044;3.766;2023-07-13T11:25:06;101882.79;;;17.97;100.00
63281;BME280;49406;51.044;3.766;2023-07-13T11:28:07;101874.44;;;18.04;100.00
63281;BME280;49406;51.044;3.766;2023-07-13T11:30:53;101868.85;;;18.17;100.00
63281;BME280;49406;51.044;3.766;2023-07-13T11:33:51;101864.59;;;18.42;100.00
63281;BME280;49406;51.044;3.766;2023-07-13T11:36:37;101856.88;;;18.76;100.00
63281;BME280;49406;51.044;3.766;2023-07-13T11:39:28;101851.83;;;19.19;100.00
63281;BME280;49406;51.044;3.766;2023-07-13T11:42:08;101852.54;;;19.49;100.00
63281;BME280;49406;51.044;3.766;2023-07-13T11:44:47;101850.22;;;19.79;100.00
63281;BME280;49406;51.044;3.766;2023-07-13T11:47:24;101852.58;;;20.12;100.00
63281;BME280;49406;51.044;3.766;2023-07-13T11:49:59;101855.02;;;20.49;100.00
63281;BME280;49406;51.044;3.766;2023-07-13T11:52:36;101853.05;;;20.81;100.00
63281;BME280;49406;51.044;3.766;2023-07-13T11:55:16;101846.85;;;21.18;100.00
63281;BME280;49406;51.044;3.766;2023-07-13T11:57:53;101849.39;;;21.67;99.88
63281;BME280;49406;51.044;3.766;2023-07-13T12:00:33;101848.67;;;22.08;98.17
63281;BME280;49406;51.044;3.766;2023-07-13T12:03:10;101849.13;;;22.26;95.00
63281;BME280;49406;51.044;3.766;2023-07-13T12:05:58;101845.15;;;22.42;93.32
63281;BME280;49406;51.044;3.766;2023-07-13T12:08:39;101839.30;;;22.76;90.50
63281;BME280;49406;51.044;3.766;2023-07-13T12:11:17;101841.39;;;22.85;86.58
63281;BME280;49406;51.044;3.766;2023-07-13T12:13:53;101836.63;;;22.90;90.73
63281;BME280;49406;51.044;3.766;2023-07-13T12:16:30;101836.50;;;23.26;92.37
63281;BME280;49406;51.044;3.766;2023-07-13T12:19:17;101843.05;;;23.52;90.56
63281;BME280;49406;51.044;3.766;2023-07-13T12:21:55;101842.24;;;23.56;86.04
63281;BME280;49406;51.044;3.766;2023-07-13T12:24:30;101841.57;;;23.42;85.29
63281;BME280;49406;51.044;3.766;2023-07-13T12:27:06;101837.40;;;23.50;86.28
63281;BME280;49406;51.044;3.766;2023-07-13T12:29:51;101838.15;;;23.79;88.86
63281;BME280;49406;51.044;3.766;2023-07-13T12:32:27;101844.94;;;24.02;82.88
63281;BME280;49406;51.044;3.766;2023-07-13T12:35:15;101837.31;;;23.99;82.68
63281;BME280;49406;51.044;3.766;2023-07-13T12:37:50;101838.96;;;24.26;83.22
63281;BME280;49406;51.044;3.766;2023-07-13T12:40:28;101835.38;;;24.54;79.04
63281;BME280;49406;51.044;3.766;2023-07-13T12:43:09;101836.23;;;24.81;80.84
63281;BME280;49406;51.044;3.766;2023-07-13T12:45:58;101827.77;;;25.03;76.13
63281;BME280;49406;51.044;3.766;2023-07-13T12:48:39;101819.57;;;25.16;73.38
63281;BME280;49406;51.044;3.766;2023-07-13T12:51:16;101819.09;;;24.90;71.23
63281;BME280;49406;51.044;3.766;2023-07-13T12:53:58;101822.34;;;24.59;70.86
63281;BME280;49406;51.044;3.766;2023-07-13T12:56:39;101820.81;;;24.24;70.49
63281;BME280;49406;51.044;3.766;2023-07-13T12:59:18;101825.33;;;23.90;71.74
63281;BME280;49406;51.044;3.766;2023-07-13T13:01:54;101820.36;;;23.65;73.54
63281;BME280;49406;51.044;3.766;2023-07-13T13:04:29;101818.59;;;23.64;74.76
63281;BME280;49406;51.044;3.766;2023-07-13T13:07:08;101822.28;;;23.84;75.10
63281;BME280;49406;51.044;3.766;2023-07-13T13:09:43;101814.63;;;24.11;76.29
63281;BME280;49406;51.044;3.766;2023-07-13T13:12:18;101812.48;;;24.33;74.89
63281;BME280;49406;51.044;3.766;2023-07-13T13:14:53;101818.88;;;24.45;73.77
63281;BME280;49406;51.044;3.766;2023-07-13T13:17:30;101818.06;;;24.48;69.30
63281;BME280;49406;51.044;3.766;2023-07-13T13:20:15;101818.30;;;24.46;69.18
63281;BME280;49406;51.044;3.766;2023-07-13T13:22:50;101818.16;;;24.45;70.13
63281;BME280;49406;51.044;3.766;2023-07-13T13:25:25;101813.30;;;24.51;68.43
63281;BME280;49406;51.044;3.766;2023-07-13T13:28:00;101808.87;;;24.60;64.53
63281;BME280;49406;51.044;3.766;2023-07-13T13:30:34;101809.02;;;24.76;64.23
63281;BME280;49406;51.044;3.766;2023-07-13T13:33:12;101807.09;;;25.10;61.39
63281;BME280;49406;51.044;3.766;2023-07-13T13:35:47;101807.44;;;25.25;56.94
63281;BME280;49406;51.044;3.766;2023-07-13T13:38:25;101807.92;;;25.36;54.92
63281;BME280;49406;51.044;3.766;2023-07-13T13:41:00;101803.56;;;25.52;54.56